createdAt,value
2022-11-25T10:56:53.809Z,28.49
2022-11-25T10:59:30.462Z,28.94
2022-11-25T11:02:38.109Z,29.34
2022-11-25T11:05:30.399Z,29.26
2022-11-25T11:13:34.753Z,29.56
2022-11-25T11:16:04.418Z,29.80
2022-11-25T11:18:40.237Z,29.41
2022-11-25T11:21:22.607Z,29.56
2022-11-25T11:23:55.039Z,29.51
2022-11-25T11:27:23.649Z,29.86
2022-11-25T11:30:58.541Z,30.06
2022-11-25T11:34:06.869Z,30.31
2022-11-25T11:37:27.968Z,30.21
2022-11-25T11:41:20.766Z,30.44
2022-11-25T11:44:41.822Z,30.86
2022-11-25T11:48:19.842Z,31.09
2022-11-25T11:51:21.501Z,31.24
2022-11-25T11:54:59.488Z,31.26
2022-11-25T11:58:11.189Z,31.04
2022-11-25T12:01:10.126Z,31.39
2022-11-25T12:03:53.190Z,31.48
2022-11-25T12:07:23.069Z,31.78
2022-11-25T12:10:37.669Z,31.84
2022-11-25T12:14:07.824Z,31.84
2022-11-25T12:17:39.376Z,31.75
2022-11-25T12:21:16.886Z,31.81
2022-11-25T12:24:42.807Z,31.81
2022-11-25T12:27:54.464Z,31.98
2022-11-25T12:31:23.111Z,31.99
2022-11-25T12:34:53.095Z,31.73
2022-11-25T12:38:23.108Z,31.72
2022-11-25T12:41:51.696Z,31.75
2022-11-25T12:45:03.398Z,31.84
2022-11-25T12:48:32.022Z,32.08
2022-11-25T12:51:24.003Z,32.45
2022-11-25T12:54:41.910Z,32.67
2022-11-25T12:58:04.562Z,32.70
2022-11-25T13:01:11.966Z,32.56
2022-11-25T13:04:38.273Z,32.56
2022-11-25T13:08:05.586Z,33.13
